Weather at Ptolemaida Bodosakeio General Hospital Heliport

Public forecast

Using degrees Celsius for public forecast. Weather courtesy of forecast.io.

Closest aviation weather report (METAR) to Ptolemaida Bodosakeio General Hospital Heliport

Closest report is Kozani National Airport Filippos, 17.7 nm (32.8 km) SSE.

2024/05/23 23:50 (retrieved 35 minutes ago)

LGKZ 232350Z AUTO VRB03KT //// // ////// 13/07 Q1018 RE//

Closest aviation forecast (TAF) to Ptolemaida Bodosakeio General Hospital Heliport

Forecast is more than 6 hours old.

Closest forecast is Kukës International Airport, 105.5 nm (195.4 km) NNW.

2024/05/23 18:00 Ammendment (retrieved 6 hours ago)

TAF AMD LAKU 231900Z 2318/2418 CNL